Time;durP1;ratioP1;P1;durP2;ratioP2;P2;SDS_P1;SDS_P2;PMS_P1;PMS_P2;Temp;Humidity;BMP_temperature;BMP_pressure;BME280_temperature;BME280_humidity;BME280_pressure;Samples;Min_cycle;Max_cycle;Signal;HPM_P1;HPM_P2
2021/11/02 00:00:26;;;;;;;8.63;3.95;;;;;;;;;;4981211;28;20046;-66
2021/11/02 00:02:52;;;;;;;7.85;3.88;;;;;;;;;;4984035;28;20054;-66
2021/11/02 00:05:19;;;;;;;7.93;4.00;;;;;;;;;;4995416;28;20042;-66
2021/11/02 00:07:46;;;;;;;7.50;3.80;;;;;;;;;;4988860;28;20050;-67
2021/11/02 00:10:12;;;;;;;9.32;4.10;;;;;;;;;;4995435;28;20051;-66
2021/11/02 00:12:39;;;;;;;8.10;3.95;;;;;;;;;;4972034;28;20050;-66
2021/11/02 00:15:06;;;;;;;7.28;4.35;;;;;;;;;;4986687;28;20056;-67
2021/11/02 00:17:35;;;;;;;9.90;3.92;;;;;;;;;;4986655;28;20054;-67
2021/11/02 00:20:04;;;;;;;8.77;4.07;;;;;;;;;;4992951;28;20061;-67
2021/11/02 00:22:32;;;;;;;8.85;3.50;;;;;;;;;;4995635;28;20054;-67
2021/11/02 00:25:04;;;;;;;11.93;4.03;;;;;;;;;;4988792;28;20642;-66
2021/11/02 00:27:33;;;;;;;6.20;3.38;;;;;;;;;;4996739;28;20100;-67
2021/11/02 00:29:59;;;;;;;11.63;3.80;;;;;;;;;;4998075;28;20054;-67
2021/11/02 00:32:26;;;;;;;5.57;3.22;;;;;;;;;;5008799;28;20054;-68
2021/11/02 00:34:52;;;;;;;10.98;4.45;;;;;;;;;;5000511;28;20053;-66
2021/11/02 00:37:18;;;;;;;9.45;3.90;;;;;;;;;;4998277;28;20065;-66
2021/11/02 00:39:45;;;;;;;8.75;3.92;;;;;;;;;;5006199;28;20390;-66
2021/11/02 00:42:11;;;;;;;7.65;3.65;;;;;;;;;;4990046;28;20149;-66
2021/11/02 00:44:39;;;;;;;8.65;3.63;;;;;;;;;;5007723;28;20060;-66
2021/11/02 00:47:05;;;;;;;8.23;3.50;;;;;;;;;;5004384;28;20422;-66
2021/11/02 00:49:32;;;;;;;8.27;4.22;;;;;;;;;;5007445;28;20057;-66
2021/11/02 00:51:58;;;;;;;8.45;3.75;;;;;;;;;;5004786;28;20054;-66
2021/11/02 00:54:24;;;;;;;11.00;3.80;;;;;;;;;;5005817;28;20070;-66
2021/11/02 00:56:51;;;;;;;10.68;3.78;;;;;;;;;;5004776;28;20050;-66
2021/11/02 00:59:17;;;;;;;8.50;3.63;;;;;;;;;;5004204;28;20081;-66
2021/11/02 01:01:43;;;;;;;10.60;3.97;;;;;;;;;;5006666;28;20045;-66
2021/11/02 01:04:10;;;;;;;8.18;3.88;;;;;;;;;;5003142;28;20050;-66
2021/11/02 01:06:37;;;;;;;6.10;3.40;;;;;;;;;;5008760;28;20053;-66
2021/11/02 01:09:04;;;;;;;10.10;4.78;;;;;;;;;;4998621;28;20056;-66
2021/11/02 01:11:31;;;;;;;7.28;3.70;;;;;;;;;;5006739;28;20053;-66
2021/11/02 01:13:57;;;;;;;6.93;3.58;;;;;;;;;;4995844;28;20086;-66
2021/11/02 01:16:25;;;;;;;6.93;3.67;;;;;;;;;;4998452;28;20057;-67
2021/11/02 01:18:52;;;;;;;7.95;3.90;;;;;;;;;;4994964;28;20054;-66
2021/11/02 01:21:19;;;;;;;10.32;4.00;;;;;;;;;;4987544;28;20050;-66
2021/11/02 01:23:45;;;;;;;10.27;4.32;;;;;;;;;;4993880;28;20042;-66
2021/11/02 01:26:11;;;;;;;10.13;3.90;;;;;;;;;;5002963;28;20076;-66
2021/11/02 01:28:38;;;;;;;11.35;3.90;;;;;;;;;;5001492;28;20753;-66
2021/11/02 01:31:04;;;;;;;9.07;3.60;;;;;;;;;;5009052;28;20451;-66
2021/11/02 01:33:32;;;;;;;9.82;4.45;;;;;;;;;;5000361;28;20045;-67
2021/11/02 01:35:58;;;;;;;10.63;3.83;;;;;;;;;;4986733;28;20057;-66
2021/11/02 01:38:25;;;;;;;11.00;3.88;;;;;;;;;;4997640;28;20403;-66
2021/11/02 01:40:54;;;;;;;10.90;4.22;;;;;;;;;;5008420;28;20061;-66
2021/11/02 01:43:20;;;;;;;8.52;3.78;;;;;;;;;;5003284;28;20053;-66
2021/11/02 01:45:49;;;;;;;12.82;4.00;;;;;;;;;;4997593;28;20628;-66
2021/11/02 01:48:15;;;;;;;;;;;;;;;;;;5007464;28;20418;-67
2021/11/02 01:50:41;;;;;;;10.38;4.40;;;;;;;;;;4991609;28;19925;-66
2021/11/02 01:53:08;;;;;;;10.57;4.28;;;;;;;;;;4990530;28;20042;-66
2021/11/02 01:55:34;;;;;;;10.45;4.50;;;;;;;;;;5001678;28;20787;-66
2021/11/02 01:58:01;;;;;;;9.77;4.40;;;;;;;;;;5005407;28;20056;-66
2021/11/02 02:00:28;;;;;;;9.32;3.90;;;;;;;;;;5002200;28;20061;-66
2021/11/02 02:02:54;;;;;;;16.13;4.28;;;;;;;;;;5001035;28;20054;-66
2021/11/02 02:05:31;;;;;;;9.95;4.18;;;;;;;;;;5001205;28;20046;-66
2021/11/02 02:08:01;;;;;;;8.55;4.22;;;;;;;;;;5001033;28;20062;-66
2021/11/02 02:10:33;;;;;;;11.63;4.60;;;;;;;;;;5009001;28;20060;-66
2021/11/02 02:13:30;;;;;;;13.18;5.00;;;;;;;;;;4990338;28;20058;-66
2021/11/02 02:16:01;;;;;;;14.18;4.38;;;;;;;;;;4952475;28;20051;-67
2021/11/02 02:18:32;;;;;;;11.02;4.53;;;;;;;;;;4988954;28;20058;-66
2021/11/02 02:21:16;;;;;;;12.68;4.38;;;;;;;;;;5004105;28;20049;-66
2021/11/02 02:23:48;;;;;;;8.38;4.30;;;;;;;;;;5001221;28;20049;-66
2021/11/02 02:26:14;;;;;;;9.35;4.40;;;;;;;;;;5001021;28;20039;-67
2021/11/02 02:28:42;;;;;;;11.27;4.78;;;;;;;;;;4988193;28;20491;-66
2021/11/02 02:31:11;;;;;;;9.63;4.07;;;;;;;;;;4994621;28;20880;-66
2021/11/02 02:33:37;;;;;;;;;;;;;;;;;;5003438;28;20064;-66
2021/11/02 02:36:04;;;;;;;7.28;3.72;;;;;;;;;;4984939;28;19926;-66
2021/11/02 02:38:33;;;;;;;9.27;4.43;;;;;;;;;;5008858;28;20064;-66
2021/11/02 02:41:00;;;;;;;10.60;4.35;;;;;;;;;;4984295;28;20053;-66
2021/11/02 02:43:28;;;;;;;10.93;3.80;;;;;;;;;;5005484;28;20142;-66
2021/11/02 02:45:55;;;;;;;11.18;4.47;;;;;;;;;;4987575;28;20049;-66
2021/11/02 02:48:22;;;;;;;9.52;4.60;;;;;;;;;;4996817;28;20122;-66
2021/11/02 02:50:49;;;;;;;10.35;4.50;;;;;;;;;;5001075;28;20045;-67
2021/11/02 02:53:16;;;;;;;12.93;4.60;;;;;;;;;;5001239;28;20069;-66
2021/11/02 02:55:43;;;;;;;10.23;4.32;;;;;;;;;;5007406;28;20046;-66
2021/11/02 02:58:10;;;;;;;12.55;4.47;;;;;;;;;;4995512;28;20060;-66
2021/11/02 03:00:37;;;;;;;8.30;4.30;;;;;;;;;;4980358;28;20495;-66
2021/11/02 03:03:04;;;;;;;12.45;5.00;;;;;;;;;;4990352;28;20074;-66
2021/11/02 03:05:31;;;;;;;11.35;3.83;;;;;;;;;;5003680;28;20053;-66
2021/11/02 03:07:57;;;;;;;10.32;4.70;;;;;;;;;;5007734;28;20046;-66
2021/11/02 03:10:24;;;;;;;13.52;4.00;;;;;;;;;;5000740;28;20057;-66
2021/11/02 03:12:52;;;;;;;13.10;4.65;;;;;;;;;;4996022;28;20145;-66
2021/11/02 03:17:55;;;;;;;10.85;4.20;;;;;;;;;;5006385;28;20060;-66
2021/11/02 03:45:12;;;;;;;8.80;3.90;;;;;;;;;;4999052;28;20414;-67
2021/11/02 03:58:37;;;;;;;8.52;4.03;;;;;;;;;;4996814;28;20045;-67
2021/11/02 04:22:01;;;;;;;8.55;3.58;;;;;;;;;;4991652;28;20518;-67
2021/11/02 04:29:33;;;;;;;9.40;4.35;;;;;;;;;;5000076;28;20053;-67
2021/11/02 04:38:36;;;;;;;7.10;3.40;;;;;;;;;;5002459;28;20053;-68
2021/11/02 04:43:34;;;;;;;8.35;3.22;;;;;;;;;;5006696;28;20054;-66
2021/11/02 05:56:40;;;;;;;8.05;3.70;;;;;;;;;;5002363;28;20408;-67
2021/11/02 05:59:17;;;;;;;6.82;3.67;;;;;;;;;;4973025;28;20085;-66
2021/11/02 06:02:08;;;;;;;6.65;3.78;;;;;;;;;;4979784;28;20088;-66
2021/11/02 06:07:49;;;;;;;6.35;3.95;;;;;;;;;;4918891;29;20048;-66
2021/11/02 06:29:31;;;;;;;7.13;3.63;;;;;;;;;;4914050;29;20083;-67
2021/11/02 06:32:04;;;;;;;8.38;3.90;;;;;;;;;;4921597;29;20660;-66
2021/11/02 06:34:47;;;;;;;5.78;3.55;;;;;;;;;;4921764;29;20051;-66
2021/11/02 06:41:58;;;;;;;7.10;3.40;;;;;;;;;;4928208;28;20540;-66
2021/11/02 06:43:17;;;;;;;7.53;3.05;;;;;;;;;;4941340;28;20051;-66
2021/11/02 06:46:16;;;;;;;6.07;3.30;;;;;;;;;;4935606;28;20063;-66
2021/11/02 06:51:26;;;;;;;10.73;3.47;;;;;;;;;;4939238;28;20059;-66
2021/11/02 06:57:11;;;;;;;6.88;3.72;;;;;;;;;;4939421;28;20284;-66
2021/11/02 07:15:27;;;;;;;15.43;7.47;;;;;;;;;;4941520;28;20095;-66
2021/11/02 07:17:03;;;;;;;16.85;6.32;;;;;;;;;;4987910;28;20396;-68
2021/11/02 07:19:39;;;;;;;11.98;6.03;;;;;;;;;;4999563;28;20054;-65
2021/11/02 07:25:03;;;;;;;13.32;4.45;;;;;;;;;;5003287;28;20050;-66
2021/11/02 08:45:24;;;;;;;7.93;4.63;;;;;;;;;;5004234;28;20050;-68
2021/11/02 08:47:59;;;;;;;8.68;4.95;;;;;;;;;;5005904;28;20080;-68
2021/11/02 08:50:29;;;;;;;11.80;5.00;;;;;;;;;;4979289;28;20046;-68
2021/11/02 08:52:57;;;;;;;9.07;4.47;;;;;;;;;;5009136;28;20050;-68
2021/11/02 08:55:23;;;;;;;8.18;5.00;;;;;;;;;;5010305;28;20065;-68
2021/11/02 08:57:50;;;;;;;9.38;5.30;;;;;;;;;;5002336;28;20264;-68
2021/11/02 09:00:17;;;;;;;11.20;5.10;;;;;;;;;;5009284;28;20045;-68
2021/11/02 09:02:48;;;;;;;10.02;4.75;;;;;;;;;;4985943;28;20050;-68
2021/11/02 09:05:22;;;;;;;11.23;5.65;;;;;;;;;;5006914;28;20115;-68
2021/11/02 09:07:49;;;;;;;8.93;4.68;;;;;;;;;;5003342;28;20049;-69
2021/11/02 09:10:19;;;;;;;10.65;5.53;;;;;;;;;;5009725;28;20052;-69
2021/11/02 09:12:49;;;;;;;7.82;4.47;;;;;;;;;;5004756;28;20506;-69
2021/11/02 09:15:16;;;;;;;10.65;4.78;;;;;;;;;;4991621;28;20614;-69
2021/11/02 09:17:44;;;;;;;12.35;5.60;;;;;;;;;;5004760;28;20237;-69
2021/11/02 09:20:11;;;;;;;9.50;4.82;;;;;;;;;;5003142;28;20507;-68
2021/11/02 09:22:38;;;;;;;10.48;5.40;;;;;;;;;;4989109;28;20060;-69
2021/11/02 09:25:05;;;;;;;10.25;5.18;;;;;;;;;;5002787;28;20054;-69
2021/11/02 09:27:31;;;;;;;13.55;5.32;;;;;;;;;;5005062;28;20054;-68
2021/11/02 09:29:58;;;;;;;10.23;5.10;;;;;;;;;;5000478;28;20517;-69
2021/11/02 09:32:24;;;;;;;7.72;4.65;;;;;;;;;;4985910;28;20042;-69
2021/11/02 09:34:52;;;;;;;12.30;5.40;;;;;;;;;;5010013;28;20050;-69
2021/11/02 09:37:18;;;;;;;9.77;5.13;;;;;;;;;;5004328;28;20061;-69
2021/11/02 09:39:54;;;;;;;8.80;4.57;;;;;;;;;;5009526;28;20056;-69
2021/11/02 09:42:39;;;;;;;8.05;4.28;;;;;;;;;;4998934;28;20050;-69
2021/11/02 09:45:07;;;;;;;9.88;4.70;;;;;;;;;;5005139;28;20053;-69
2021/11/02 09:47:33;;;;;;;8.53;4.63;;;;;;;;;;5002677;28;20512;-69
2021/11/02 09:50:18;;;;;;;6.75;4.20;;;;;;;;;;5008718;28;20053;-69
2021/11/02 09:53:03;;;;;;;7.90;4.53;;;;;;;;;;5005705;28;20045;-69
2021/11/02 09:55:53;;;;;;;9.85;5.30;;;;;;;;;;4997378;28;20054;-69
2021/11/02 09:58:34;;;;;;;11.27;5.57;;;;;;;;;;5001949;28;20129;-69
2021/11/02 10:01:19;;;;;;;9.48;5.53;;;;;;;;;;5000411;28;20069;-69
2021/11/02 10:04:05;;;;;;;14.10;5.70;;;;;;;;;;5001840;28;20512;-70
2021/11/02 10:06:40;;;;;;;10.02;5.10;;;;;;;;;;4990501;28;20055;-69
2021/11/02 10:09:09;;;;;;;16.13;5.93;;;;;;;;;;5008746;28;20049;-69
2021/11/02 10:11:35;;;;;;;10.13;5.97;;;;;;;;;;4996809;28;20060;-69
2021/11/02 10:14:13;;;;;;;14.10;6.03;;;;;;;;;;5004347;28;20086;-69
2021/11/02 10:17:01;;;;;;;9.70;5.90;;;;;;;;;;4966450;28;20042;-69
2021/11/02 10:19:39;;;;;;;15.50;6.05;;;;;;;;;;5007749;28;20054;-69
2021/11/02 10:22:11;;;;;;;10.98;5.45;;;;;;;;;;5002105;28;20046;-69
2021/11/02 10:24:52;;;;;;;12.85;6.20;;;;;;;;;;5003696;28;20054;-69
2021/11/02 10:27:48;;;;;;;10.90;5.20;;;;;;;;;;4988681;28;20414;-70
2021/11/02 10:30:26;;;;;;;12.82;5.43;;;;;;;;;;5009051;28;20049;-69
2021/11/02 10:32:53;;;;;;;;;;;;;;;;;;5000935;28;20107;-69
2021/11/02 10:35:21;;;;;;;12.70;6.10;;;;;;;;;;5008577;28;19925;-69
2021/11/02 10:38:04;;;;;;;15.57;6.43;;;;;;;;;;5005991;28;20052;-69
2021/11/02 10:40:33;;;;;;;13.35;7.03;;;;;;;;;;4999407;28;20050;-69
2021/11/02 10:43:04;;;;;;;21.27;6.80;;;;;;;;;;5007524;28;20388;-68
2021/11/02 10:45:32;;;;;;;14.18;6.10;;;;;;;;;;5002133;28;20050;-67
2021/11/02 10:48:09;;;;;;;13.75;6.55;;;;;;;;;;5008497;28;20057;-69
2021/11/02 10:50:37;;;;;;;12.50;6.18;;;;;;;;;;4997992;28;20560;-69
2021/11/02 10:53:05;;;;;;;11.98;6.55;;;;;;;;;;4987210;28;20045;-69
2021/11/02 10:55:40;;;;;;;12.90;6.10;;;;;;;;;;4998284;28;20428;-69
2021/11/02 10:58:25;;;;;;;10.23;5.55;;;;;;;;;;5008073;28;20164;-69
2021/11/02 11:00:52;;;;;;;10.15;6.22;;;;;;;;;;5000307;28;20077;-69
2021/11/02 11:03:19;;;;;;;7.82;5.43;;;;;;;;;;5006923;28;20054;-69
2021/11/02 11:05:46;;;;;;;12.77;6.32;;;;;;;;;;5002784;28;20050;-69
2021/11/02 11:08:14;;;;;;;8.95;5.40;;;;;;;;;;4996160;28;20050;-69
2021/11/02 11:10:42;;;;;;;10.65;6.13;;;;;;;;;;4990420;28;20057;-69
2021/11/02 11:13:09;;;;;;;12.38;6.05;;;;;;;;;;4990294;28;20054;-69
2021/11/02 11:15:36;;;;;;;16.27;6.13;;;;;;;;;;5006975;28;20054;-69
2021/11/02 11:18:02;;;;;;;11.73;6.32;;;;;;;;;;4984592;28;20065;-69
2021/11/02 11:20:29;;;;;;;12.15;6.45;;;;;;;;;;5003293;28;20042;-69
2021/11/02 11:22:57;;;;;;;9.73;5.47;;;;;;;;;;5002278;28;20064;-69
2021/11/02 11:25:28;;;;;;;13.90;6.65;;;;;;;;;;5000514;28;20688;-69
2021/11/02 11:27:57;;;;;;;20.85;7.50;;;;;;;;;;4996807;28;20081;-69
2021/11/02 11:30:29;;;;;;;14.85;7.70;;;;;;;;;;5001350;28;20057;-69
2021/11/02 11:32:55;;;;;;;12.05;7.47;;;;;;;;;;5003940;28;20082;-69
2021/11/02 11:35:22;;;;;;;11.15;6.47;;;;;;;;;;4996041;28;20050;-69
2021/11/02 11:37:50;;;;;;;11.48;7.22;;;;;;;;;;5007391;28;20731;-69
2021/11/02 11:40:18;;;;;;;16.10;8.00;;;;;;;;;;5007991;28;20395;-69
2021/11/02 11:42:46;;;;;;;13.98;7.65;;;;;;;;;;5000247;28;20426;-69
2021/11/02 11:45:17;;;;;;;12.07;6.53;;;;;;;;;;5006779;28;20069;-69
2021/11/02 11:47:43;;;;;;;12.80;6.88;;;;;;;;;;4994628;28;20058;-69
2021/11/02 11:50:17;;;;;;;13.57;6.82;;;;;;;;;;4998966;28;20209;-69
2021/11/02 11:52:44;;;;;;;10.52;6.30;;;;;;;;;;5000017;28;20054;-69
2021/11/02 11:55:12;;;;;;;11.45;6.25;;;;;;;;;;5007646;28;20058;-69
2021/11/02 11:57:39;;;;;;;13.82;6.72;;;;;;;;;;5003631;28;20061;-69
2021/11/02 12:00:06;;;;;;;12.20;6.07;;;;;;;;;;5006980;28;20102;-69
2021/11/02 12:02:47;;;;;;;13.18;6.45;;;;;;;;;;5000204;28;20045;-68
2021/11/02 12:05:17;;;;;;;13.80;6.10;;;;;;;;;;4985035;28;20050;-69
2021/11/02 12:07:51;;;;;;;12.75;6.88;;;;;;;;;;4997217;28;20056;-69
2021/11/02 12:10:21;;;;;;;10.50;6.28;;;;;;;;;;5004379;28;20054;-69
2021/11/02 12:12:48;;;;;;;10.25;5.72;;;;;;;;;;5005084;28;20046;-69
2021/11/02 12:15:16;;;;;;;10.52;6.38;;;;;;;;;;4995431;28;20221;-69
2021/11/02 12:17:43;;;;;;;13.45;6.20;;;;;;;;;;5008606;28;20049;-69
2021/11/02 12:20:11;;;;;;;12.43;6.50;;;;;;;;;;5011061;28;20069;-69
2021/11/02 12:22:47;;;;;;;11.77;6.30;;;;;;;;;;5003973;28;20059;-68
2021/11/02 12:25:17;;;;;;;13.52;6.38;;;;;;;;;;5010416;28;20050;-70
2021/11/02 12:27:44;;;;;;;13.40;7.55;;;;;;;;;;4985892;28;20053;-69
2021/11/02 12:30:11;;;;;;;12.02;6.72;;;;;;;;;;5006202;28;20062;-69
2021/11/02 12:32:45;;;;;;;10.47;6.23;;;;;;;;;;5001810;28;20050;-69
2021/11/02 12:35:19;;;;;;;10.68;5.80;;;;;;;;;;5010438;28;20054;-68
2021/11/02 12:38:05;;;;;;;12.20;6.57;;;;;;;;;;4987043;28;20619;-68
2021/11/02 12:40:36;;;;;;;15.38;6.63;;;;;;;;;;5011142;28;20272;-69
2021/11/02 12:43:36;;;;;;;13.52;6.68;;;;;;;;;;5004399;28;20046;-69
2021/11/02 12:46:02;;;;;;;11.45;6.63;;;;;;;;;;5011094;28;20049;-69
2021/11/02 12:48:30;;;;;;;12.95;6.85;;;;;;;;;;5006780;28;20480;-68
2021/11/02 12:51:14;;;;;;;10.32;6.22;;;;;;;;;;5004537;28;20053;-69
2021/11/02 12:53:44;;;;;;;10.40;6.85;;;;;;;;;;5002796;28;20418;-68
2021/11/02 12:56:15;;;;;;;10.65;5.45;;;;;;;;;;5002838;28;20046;-68
2021/11/02 12:58:43;;;;;;;11.65;7.13;;;;;;;;;;5010038;28;20050;-69
2021/11/02 13:01:09;;;;;;;10.45;6.47;;;;;;;;;;4995698;28;20058;-68
2021/11/02 13:03:37;;;;;;;10.75;6.53;;;;;;;;;;5007918;28;20049;-68
2021/11/02 13:06:08;;;;;;;11.70;7.27;;;;;;;;;;4993519;28;20958;-69
2021/11/02 13:08:47;;;;;;;11.05;7.15;;;;;;;;;;4995689;28;20295;-69
2021/11/02 13:11:15;;;;;;;12.30;7.18;;;;;;;;;;5010189;28;20597;-69
2021/11/02 13:13:58;;;;;;;10.30;6.72;;;;;;;;;;4992093;28;20274;-68
2021/11/02 13:16:25;;;;;;;9.45;6.65;;;;;;;;;;5009734;28;20144;-68
2021/11/02 13:18:52;;;;;;;15.35;7.68;;;;;;;;;;5003179;28;20065;-69
2021/11/02 13:21:24;;;;;;;14.55;7.90;;;;;;;;;;5003259;28;20052;-69
2021/11/02 13:24:00;;;;;;;9.75;6.30;;;;;;;;;;5001460;28;20060;-69
2021/11/02 13:26:26;;;;;;;9.02;6.30;;;;;;;;;;5007739;28;20049;-68
2021/11/02 13:29:07;;;;;;;10.00;6.20;;;;;;;;;;5003330;28;20577;-69
2021/11/02 13:31:34;;;;;;;8.93;5.57;;;;;;;;;;5008116;28;20265;-68
2021/11/02 13:34:02;;;;;;;7.75;5.13;;;;;;;;;;4973885;28;20112;-69
2021/11/02 13:36:29;;;;;;;10.93;5.80;;;;;;;;;;4998488;28;20057;-69
2021/11/02 13:39:05;;;;;;;9.95;5.72;;;;;;;;;;4990901;28;20054;-69
2021/11/02 13:41:53;;;;;;;9.13;5.82;;;;;;;;;;5002085;28;20062;-69
2021/11/02 13:44:20;;;;;;;10.07;5.10;;;;;;;;;;5009803;28;20061;-68
2021/11/02 13:46:48;;;;;;;12.63;6.00;;;;;;;;;;5002322;28;20302;-69
2021/11/02 13:49:15;;;;;;;10.07;5.32;;;;;;;;;;4990698;28;20050;-69
2021/11/02 13:51:41;;;;;;;11.60;6.07;;;;;;;;;;4999058;28;20049;-69
2021/11/02 13:54:08;;;;;;;9.57;5.60;;;;;;;;;;4981179;28;20491;-69
2021/11/02 13:56:39;;;;;;;10.77;5.53;;;;;;;;;;5003431;28;20058;-69
2021/11/02 13:59:06;;;;;;;11.43;5.72;;;;;;;;;;4986024;28;20061;-68
2021/11/02 14:01:46;;;;;;;9.50;5.38;;;;;;;;;;4993859;28;20042;-69
2021/11/02 14:04:18;;;;;;;8.52;5.50;;;;;;;;;;4978157;28;20053;-69
2021/11/02 14:07:10;;;;;;;8.77;5.32;;;;;;;;;;4989457;28;20065;-69
2021/11/02 14:09:38;;;;;;;9.35;5.35;;;;;;;;;;4986570;28;20057;-69
2021/11/02 14:12:19;;;;;;;12.93;5.23;;;;;;;;;;5009158;28;20056;-69
2021/11/02 14:14:46;;;;;;;15.63;5.88;;;;;;;;;;4975177;28;20149;-69
2021/11/02 14:17:20;;;;;;;11.00;5.30;;;;;;;;;;5000964;28;20365;-68
2021/11/02 14:19:48;;;;;;;10.45;5.28;;;;;;;;;;4994728;28;20287;-69
2021/11/02 14:22:14;;;;;;;13.05;6.60;;;;;;;;;;5009995;28;20057;-69
2021/11/02 14:24:42;;;;;;;9.73;5.50;;;;;;;;;;4996321;28;20046;-69
2021/11/02 14:27:18;;;;;;;7.00;4.77;;;;;;;;;;4984562;28;20054;-69
2021/11/02 14:29:47;;;;;;;7.65;5.32;;;;;;;;;;4996806;28;20050;-69
2021/11/02 14:32:33;;;;;;;14.05;5.78;;;;;;;;;;4995661;28;20152;-68
2021/11/02 14:34:59;;;;;;;10.55;6.15;;;;;;;;;;4993667;28;20054;-68
2021/11/02 14:37:27;;;;;;;11.93;6.32;;;;;;;;;;5000630;28;20056;-68
2021/11/02 14:39:55;;;;;;;13.63;6.30;;;;;;;;;;5008222;28;20046;-68
2021/11/02 14:42:42;;;;;;;13.23;6.20;;;;;;;;;;5001856;28;20291;-68
2021/11/02 14:45:10;;;;;;;10.15;5.28;;;;;;;;;;5004865;28;20491;-68
2021/11/02 14:47:38;;;;;;;9.70;5.50;;;;;;;;;;5008399;28;20057;-68
2021/11/02 14:50:24;;;;;;;10.90;6.20;;;;;;;;;;4992056;28;20045;-69
2021/11/02 14:52:51;;;;;;;6.10;3.97;;;;;;;;;;5008472;28;20427;-69
2021/11/02 14:55:36;;;;;;;10.95;3.75;;;;;;;;;;5001879;28;20045;-69
2021/11/02 14:58:02;;;;;;;4.18;2.63;;;;;;;;;;5003236;28;20045;-68
2021/11/02 15:00:38;;;;;;;4.35;2.50;;;;;;;;;;4994823;28;20471;-69
2021/11/02 15:03:14;;;;;;;4.78;2.72;;;;;;;;;;5003601;28;20100;-69
2021/11/02 15:05:41;;;;;;;4.50;1.88;;;;;;;;;;5001742;28;20149;-69
2021/11/02 15:08:13;;;;;;;4.77;2.20;;;;;;;;;;5008771;28;20501;-69
2021/11/02 15:10:42;;;;;;;4.25;2.20;;;;;;;;;;5002479;28;20042;-69
2021/11/02 15:13:08;;;;;;;3.60;1.98;;;;;;;;;;4995031;28;20054;-69
2021/11/02 15:15:34;;;;;;;3.05;2.25;;;;;;;;;;4988963;28;20133;-69
2021/11/02 15:18:09;;;;;;;4.57;2.38;;;;;;;;;;5001869;28;20045;-68
2021/11/02 15:20:36;;;;;;;3.92;2.35;;;;;;;;;;5007821;28;20112;-68
2021/11/02 15:23:03;;;;;;;4.50;2.97;;;;;;;;;;5001501;28;20072;-69
2021/11/02 15:25:29;;;;;;;7.20;2.80;;;;;;;;;;5003719;28;20487;-69
2021/11/02 15:28:00;;;;;;;4.63;2.72;;;;;;;;;;4998402;28;20037;-69
2021/11/02 15:30:27;;;;;;;6.72;3.42;;;;;;;;;;5006832;28;20136;-69
2021/11/02 15:32:54;;;;;;;10.13;3.95;;;;;;;;;;5005586;28;20386;-69
2021/11/02 15:35:22;;;;;;;6.90;4.03;;;;;;;;;;5002145;28;20415;-69
2021/11/02 15:37:52;;;;;;;9.80;5.40;;;;;;;;;;5004411;28;20060;-69
2021/11/02 15:40:21;;;;;;;8.93;5.10;;;;;;;;;;4998278;28;20299;-69
2021/11/02 15:42:51;;;;;;;10.75;5.43;;;;;;;;;;5007550;28;20060;-69
2021/11/02 15:45:36;;;;;;;11.30;6.38;;;;;;;;;;4987372;28;20056;-69
2021/11/02 15:48:13;;;;;;;12.65;6.53;;;;;;;;;;4975730;28;20128;-69
2021/11/02 15:50:41;;;;;;;14.15;7.05;;;;;;;;;;4989140;28;20054;-69
2021/11/02 15:53:09;;;;;;;9.38;5.47;;;;;;;;;;4985588;28;20060;-69
2021/11/02 15:55:39;;;;;;;10.93;6.00;;;;;;;;;;5003199;28;20042;-69
2021/11/02 15:58:07;;;;;;;7.60;5.22;;;;;;;;;;5000767;28;20136;-69
2021/11/02 16:00:34;;;;;;;7.00;4.78;;;;;;;;;;5004134;28;20054;-69
2021/11/02 16:03:01;;;;;;;10.45;5.25;;;;;;;;;;4991449;28;20065;-69
2021/11/02 16:05:29;;;;;;;10.23;5.53;;;;;;;;;;5004887;28;20446;-69
2021/11/02 16:07:56;;;;;;;8.23;5.93;;;;;;;;;;4992923;28;20050;-69
2021/11/02 16:10:26;;;;;;;7.72;5.25;;;;;;;;;;5007104;28;20104;-69
2021/11/02 16:12:52;;;;;;;11.15;5.68;;;;;;;;;;5001458;28;20086;-70
2021/11/02 16:15:20;;;;;;;9.30;6.32;;;;;;;;;;4993923;28;20049;-69
2021/11/02 16:17:48;;;;;;;10.77;7.03;;;;;;;;;;5006684;28;20046;-69
2021/11/02 16:20:22;;;;;;;12.40;6.38;;;;;;;;;;4961263;28;20492;-69
2021/11/02 16:22:55;;;;;;;12.30;7.15;;;;;;;;;;4990332;28;20066;-69
2021/11/02 16:25:40;;;;;;;13.05;7.97;;;;;;;;;;4997381;28;20128;-69
2021/11/02 16:28:08;;;;;;;12.20;7.38;;;;;;;;;;5005160;28;20050;-69
2021/11/02 16:30:40;;;;;;;16.20;8.32;;;;;;;;;;4999716;28;20387;-69
2021/11/02 16:33:07;;;;;;;11.43;6.78;;;;;;;;;;5003130;28;20050;-69
2021/11/02 16:35:38;;;;;;;10.10;6.18;;;;;;;;;;5000012;28;20728;-69
2021/11/02 16:38:16;;;;;;;9.38;6.07;;;;;;;;;;5000019;28;20495;-69
2021/11/02 16:40:43;;;;;;;8.25;5.22;;;;;;;;;;5007060;28;20427;-69
2021/11/02 16:43:10;;;;;;;9.23;5.38;;;;;;;;;;5004213;28;20495;-69
2021/11/02 16:45:36;;;;;;;9.40;5.13;;;;;;;;;;5009980;28;20444;-69
2021/11/02 16:48:04;;;;;;;8.20;4.85;;;;;;;;;;4999170;28;20159;-70
2021/11/02 16:50:32;;;;;;;8.63;4.97;;;;;;;;;;4990591;28;20046;-69
2021/11/02 16:53:09;;;;;;;8.13;4.43;;;;;;;;;;5004370;28;20053;-69
2021/11/02 16:55:37;;;;;;;10.57;4.68;;;;;;;;;;5009680;28;20058;-69
2021/11/02 16:58:19;;;;;;;10.60;3.85;;;;;;;;;;5010947;28;20069;-69
2021/11/02 17:00:46;;;;;;;9.32;4.50;;;;;;;;;;4999033;28;20058;-69
2021/11/02 17:03:19;;;;;;;7.60;4.15;;;;;;;;;;4991659;28;20068;-69
2021/11/02 17:05:48;;;;;;;8.35;3.65;;;;;;;;;;5003145;28;20507;-68
2021/11/02 17:08:15;;;;;;;5.53;3.00;;;;;;;;;;5010142;28;20410;-69
2021/11/02 17:10:41;;;;;;;5.40;2.95;;;;;;;;;;5004290;28;20061;-69
2021/11/02 17:13:07;;;;;;;6.75;2.75;;;;;;;;;;5011176;28;20474;-69
2021/11/02 17:15:38;;;;;;;4.95;3.20;;;;;;;;;;5004657;28;20518;-68
2021/11/02 17:18:06;;;;;;;4.47;2.65;;;;;;;;;;5005218;28;20080;-69
2021/11/02 17:20:34;;;;;;;6.47;2.92;;;;;;;;;;5009498;28;20558;-69
2021/11/02 17:23:01;;;;;;;9.70;3.38;;;;;;;;;;5003579;28;20042;-69
2021/11/02 17:25:28;;;;;;;5.05;3.13;;;;;;;;;;5008632;28;20410;-69
2021/11/02 17:27:55;;;;;;;6.30;3.20;;;;;;;;;;4994560;28;20057;-70
2021/11/02 17:30:26;;;;;;;6.22;3.00;;;;;;;;;;5001506;28;20398;-69
2021/11/02 17:32:53;;;;;;;5.03;3.00;;;;;;;;;;4999266;28;20045;-69
2021/11/02 17:35:20;;;;;;;6.53;3.33;;;;;;;;;;5009184;28;20044;-69
2021/11/02 17:37:47;;;;;;;5.80;2.67;;;;;;;;;;5009085;28;20050;-70
2021/11/02 17:40:15;;;;;;;5.65;3.28;;;;;;;;;;5001884;28;20052;-69
2021/11/02 17:42:43;;;;;;;5.30;3.28;;;;;;;;;;5003776;28;20046;-69
2021/11/02 17:45:10;;;;;;;8.75;4.03;;;;;;;;;;4997186;28;20053;-69
2021/11/02 17:47:38;;;;;;;7.43;4.13;;;;;;;;;;5008888;28;20057;-69
2021/11/02 17:50:04;;;;;;;12.77;4.65;;;;;;;;;;4999237;28;20053;-69
2021/11/02 17:52:31;;;;;;;9.98;4.78;;;;;;;;;;5008821;28;20042;-69
2021/11/02 17:54:57;;;;;;;9.73;4.40;;;;;;;;;;5009628;28;20041;-69
2021/11/02 17:57:24;;;;;;;10.48;5.22;;;;;;;;;;4998780;28;20056;-69
2021/11/02 17:59:50;;;;;;;16.52;5.00;;;;;;;;;;5004943;28;20050;-69
2021/11/02 18:02:17;;;;;;;10.50;5.32;;;;;;;;;;5000459;28;20060;-69
2021/11/02 18:04:44;;;;;;;9.40;5.57;;;;;;;;;;5007211;28;20054;-69
2021/11/02 18:07:11;;;;;;;11.75;6.72;;;;;;;;;;4988508;28;20688;-69
2021/11/02 18:09:38;;;;;;;8.52;5.38;;;;;;;;;;4999068;28;20064;-69
2021/11/02 18:12:04;;;;;;;10.75;5.60;;;;;;;;;;4997118;28;20057;-69
2021/11/02 18:14:32;;;;;;;8.48;5.68;;;;;;;;;;4982111;28;20063;-69
2021/11/02 18:16:59;;;;;;;10.70;5.73;;;;;;;;;;5008617;28;20048;-69
2021/11/02 18:19:26;;;;;;;11.73;5.55;;;;;;;;;;5003397;28;20278;-69
2021/11/02 18:21:53;;;;;;;11.90;5.28;;;;;;;;;;4991389;28;20046;-69
2021/11/02 18:24:19;;;;;;;9.27;5.50;;;;;;;;;;4997954;28;20068;-69
2021/11/02 18:26:46;;;;;;;8.93;5.45;;;;;;;;;;4994784;28;20054;-68
2021/11/02 18:29:12;;;;;;;9.15;5.50;;;;;;;;;;5008397;28;20531;-69
2021/11/02 18:31:39;;;;;;;7.05;4.68;;;;;;;;;;5001329;28;20065;-69
2021/11/02 18:34:06;;;;;;;9.43;5.65;;;;;;;;;;5008276;28;20175;-69
2021/11/02 18:36:32;;;;;;;9.23;4.90;;;;;;;;;;4997210;28;20068;-69
2021/11/02 18:38:58;;;;;;;12.38;4.97;;;;;;;;;;5003400;28;20833;-69
2021/11/02 18:41:25;;;;;;;9.57;6.05;;;;;;;;;;5001449;28;20049;-69
2021/11/02 18:43:52;;;;;;;11.30;6.50;;;;;;;;;;5007873;28;20056;-69
2021/11/02 18:46:18;;;;;;;13.98;7.30;;;;;;;;;;4999907;28;20479;-67
2021/11/02 18:48:45;;;;;;;13.15;7.30;;;;;;;;;;4978452;28;20548;-68
2021/11/02 18:51:11;;;;;;;10.50;6.80;;;;;;;;;;4987804;28;20065;-68
2021/11/02 18:53:38;;;;;;;13.55;8.15;;;;;;;;;;4983194;28;20050;-68
2021/11/02 18:56:05;;;;;;;14.82;8.35;;;;;;;;;;4983217;28;20137;-68
2021/11/02 18:58:32;;;;;;;15.20;8.32;;;;;;;;;;4977004;28;20712;-68
2021/11/02 19:00:58;;;;;;;18.40;8.52;;;;;;;;;;4984157;28;20062;-68
2021/11/02 19:03:25;;;;;;;14.57;8.60;;;;;;;;;;4989971;28;20037;-68
2021/11/02 19:05:51;;;;;;;14.80;8.63;;;;;;;;;;4978700;28;20988;-68
2021/11/02 19:08:18;;;;;;;18.75;9.15;;;;;;;;;;4992057;28;20061;-69
2021/11/02 19:10:46;;;;;;;16.80;9.68;;;;;;;;;;4983958;28;20438;-68
2021/11/02 19:13:12;;;;;;;16.75;8.88;;;;;;;;;;4993948;28;20049;-68
2021/11/02 19:15:42;;;;;;;19.67;11.55;;;;;;;;;;4985525;28;20070;-68
2021/11/02 19:18:09;;;;;;;28.20;11.93;;;;;;;;;;4992385;28;20585;-68
2021/11/02 19:20:36;;;;;;;20.13;12.10;;;;;;;;;;4986747;28;20518;-68
2021/11/02 19:23:02;;;;;;;19.00;11.68;;;;;;;;;;4990430;28;20042;-68